H77 weather

Bridge Bay Resort Seaplane Base
Redding, California, United States

Public forecast

Using degrees Fahrenheit for public forecast. Weather courtesy of forecast.io.

Closest aviation weather report (METAR) to Bridge Bay Resort Seaplane Base

Closest report is Redding Municipal Airport, 15.0 nm (27.8 km) S. Retrieved 2019/10/15 01:53 UTC (1 hour ago):

KRDD 150153Z 18004KT 10SM CLR 23/M02 A2990 RMK AO2 SLP121 T02331022

Closest aviation forecast (TAF) to Bridge Bay Resort Seaplane Base

Closest forecast is Redding Municipal Airport, 15.0 nm (27.8 km) S. Retrieved 2019-10-15 00:22 UTC (3 hours ago):

TAF KRDD 142320Z 1500/1524 VRB04KT P6SM SKC